sensor_id;sensor_type;location;lat;lon;timestamp;P1;durP1;ratioP1;P2;durP2;ratioP2
20478;SDS011;10398;52.490;13.434;2024-02-15T00:00:27;5.80;;;2.90;;
20478;SDS011;10398;52.490;13.434;2024-02-15T00:02:53;4.97;;;2.70;;
20478;SDS011;10398;52.490;13.434;2024-02-15T00:05:19;3.83;;;2.27;;
20478;SDS011;10398;52.490;13.434;2024-02-15T00:07:45;4.80;;;2.60;;
20478;SDS011;10398;52.490;13.434;2024-02-15T00:10:14;6.13;;;2.83;;
20478;SDS011;10398;52.490;13.434;2024-02-15T00:12:40;4.97;;;2.80;;
20478;SDS011;10398;52.490;13.434;2024-02-15T00:15:05;11.63;;;3.23;;
20478;SDS011;10398;52.490;13.434;2024-02-15T00:17:31;8.10;;;3.60;;
20478;SDS011;10398;52.490;13.434;2024-02-15T00:20:00;8.57;;;4.13;;
20478;SDS011;10398;52.490;13.434;2024-02-15T00:22:30;6.40;;;3.33;;
20478;SDS011;10398;52.490;13.434;2024-02-15T00:24:56;7.37;;;3.23;;
20478;SDS011;10398;52.490;13.434;2024-02-15T00:27:23;8.33;;;3.53;;
20478;SDS011;10398;52.490;13.434;2024-02-15T00:29:48;10.10;;;3.20;;
20478;SDS011;10398;52.490;13.434;2024-02-15T00:32:14;5.97;;;3.50;;
20478;SDS011;10398;52.490;13.434;2024-02-15T00:34:40;11.43;;;3.57;;
20478;SDS011;10398;52.490;13.434;2024-02-15T00:37:05;8.97;;;3.30;;
20478;SDS011;10398;52.490;13.434;2024-02-15T00:39:34;6.90;;;3.10;;
20478;SDS011;10398;52.490;13.434;2024-02-15T00:41:59;11.07;;;3.70;;
20478;SDS011;10398;52.490;13.434;2024-02-15T00:44:28;6.73;;;3.37;;
20478;SDS011;10398;52.490;13.434;2024-02-15T00:46:54;11.23;;;3.17;;
20478;SDS011;10398;52.490;13.434;2024-02-15T00:49:21;7.40;;;3.70;;
20478;SDS011;10398;52.490;13.434;2024-02-15T00:51:47;6.50;;;3.43;;
20478;SDS011;10398;52.490;13.434;2024-02-15T00:54:12;7.47;;;3.40;;
20478;SDS011;10398;52.490;13.434;2024-02-15T00:56:38;5.50;;;3.07;;
20478;SDS011;10398;52.490;13.434;2024-02-15T00:59:05;7.70;;;3.40;;
20478;SDS011;10398;52.490;13.434;2024-02-15T01:01:30;5.60;;;3.23;;
20478;SDS011;10398;52.490;13.434;2024-02-15T01:03:57;9.17;;;3.20;;
20478;SDS011;10398;52.490;13.434;2024-02-15T01:06:23;8.43;;;3.53;;
20478;SDS011;10398;52.490;13.434;2024-02-15T01:08:49;6.17;;;3.00;;
20478;SDS011;10398;52.490;13.434;2024-02-15T01:11:14;4.40;;;2.80;;
20478;SDS011;10398;52.490;13.434;2024-02-15T01:13:40;6.10;;;2.90;;
20478;SDS011;10398;52.490;13.434;2024-02-15T01:16:06;7.77;;;3.50;;
20478;SDS011;10398;52.490;13.434;2024-02-15T01:18:33;6.77;;;3.20;;
20478;SDS011;10398;52.490;13.434;2024-02-15T01:20:59;6.23;;;3.20;;
20478;SDS011;10398;52.490;13.434;2024-02-15T01:23:25;4.70;;;2.50;;
20478;SDS011;10398;52.490;13.434;2024-02-15T01:25:52;10.07;;;3.20;;
20478;SDS011;10398;52.490;13.434;2024-02-15T01:28:17;7.37;;;2.77;;
20478;SDS011;10398;52.490;13.434;2024-02-15T01:30:43;6.17;;;3.30;;
20478;SDS011;10398;52.490;13.434;2024-02-15T01:33:09;7.17;;;3.13;;
20478;SDS011;10398;52.490;13.434;2024-02-15T01:35:36;4.40;;;2.47;;
20478;SDS011;10398;52.490;13.434;2024-02-15T01:38:02;7.63;;;2.63;;
20478;SDS011;10398;52.490;13.434;2024-02-15T01:40:28;5.80;;;3.10;;
20478;SDS011;10398;52.490;13.434;2024-02-15T01:42:53;6.00;;;3.17;;
20478;SDS011;10398;52.490;13.434;2024-02-15T01:45:20;6.13;;;2.83;;
20478;SDS011;10398;52.490;13.434;2024-02-15T01:47:46;6.83;;;2.83;;
20478;SDS011;10398;52.490;13.434;2024-02-15T01:50:13;4.57;;;2.77;;
20478;SDS011;10398;52.490;13.434;2024-02-15T01:52:41;8.53;;;2.60;;
20478;SDS011;10398;52.490;13.434;2024-02-15T01:55:09;9.30;;;3.40;;
20478;SDS011;10398;52.490;13.434;2024-02-15T01:57:38;8.13;;;3.20;;
20478;SDS011;10398;52.490;13.434;2024-02-15T02:00:06;4.73;;;2.80;;
20478;SDS011;10398;52.490;13.434;2024-02-15T02:02:35;4.80;;;2.53;;
20478;SDS011;10398;52.490;13.434;2024-02-15T02:05:07;6.97;;;2.43;;
20478;SDS011;10398;52.490;13.434;2024-02-15T02:07:33;4.83;;;2.87;;
20478;SDS011;10398;52.490;13.434;2024-02-15T02:10:00;5.30;;;3.00;;
20478;SDS011;10398;52.490;13.434;2024-02-15T02:12:26;5.40;;;2.57;;
20478;SDS011;10398;52.490;13.434;2024-02-15T02:14:52;6.03;;;2.40;;
20478;SDS011;10398;52.490;13.434;2024-02-15T02:17:21;6.77;;;3.50;;
20478;SDS011;10398;52.490;13.434;2024-02-15T02:19:47;5.37;;;2.97;;
20478;SDS011;10398;52.490;13.434;2024-02-15T02:22:16;8.00;;;3.23;;
20478;SDS011;10398;52.490;13.434;2024-02-15T02:27:34;6.30;;;3.20;;
20478;SDS011;10398;52.490;13.434;2024-02-15T02:30:04;6.73;;;3.00;;
20478;SDS011;10398;52.490;13.434;2024-02-15T02:32:54;6.13;;;3.30;;
20478;SDS011;10398;52.490;13.434;2024-02-15T02:35:23;10.57;;;3.53;;
20478;SDS011;10398;52.490;13.434;2024-02-15T02:37:50;5.33;;;3.23;;
20478;SDS011;10398;52.490;13.434;2024-02-15T02:40:18;7.37;;;3.70;;
20478;SDS011;10398;52.490;13.434;2024-02-15T02:42:51;7.00;;;4.20;;
20478;SDS011;10398;52.490;13.434;2024-02-15T02:45:18;6.00;;;3.57;;
20478;SDS011;10398;52.490;13.434;2024-02-15T02:47:47;7.20;;;3.60;;
20478;SDS011;10398;52.490;13.434;2024-02-15T02:50:13;6.87;;;3.77;;
20478;SDS011;10398;52.490;13.434;2024-02-15T02:52:39;7.50;;;4.07;;
20478;SDS011;10398;52.490;13.434;2024-02-15T02:55:05;5.53;;;3.23;;
20478;SDS011;10398;52.490;13.434;2024-02-15T02:57:34;7.37;;;3.27;;
20478;SDS011;10398;52.490;13.434;2024-02-15T03:00:07;9.67;;;4.10;;
20478;SDS011;10398;52.490;13.434;2024-02-15T03:02:45;6.20;;;3.77;;
20478;SDS011;10398;52.490;13.434;2024-02-15T03:05:11;8.23;;;4.27;;
20478;SDS011;10398;52.490;13.434;2024-02-15T03:07:38;7.40;;;3.63;;
20478;SDS011;10398;52.490;13.434;2024-02-15T03:10:05;6.20;;;3.47;;
20478;SDS011;10398;52.490;13.434;2024-02-15T03:12:37;9.67;;;3.80;;
20478;SDS011;10398;52.490;13.434;2024-02-15T03:15:04;7.63;;;3.43;;
20478;SDS011;10398;52.490;13.434;2024-02-15T03:17:37;6.30;;;3.70;;
20478;SDS011;10398;52.490;13.434;2024-02-15T03:20:07;6.43;;;3.50;;
20478;SDS011;10398;52.490;13.434;2024-02-15T03:22:37;7.67;;;3.53;;
20478;SDS011;10398;52.490;13.434;2024-02-15T03:25:04;6.80;;;3.53;;
20478;SDS011;10398;52.490;13.434;2024-02-15T03:27:36;7.67;;;3.97;;
20478;SDS011;10398;52.490;13.434;2024-02-15T03:30:05;6.93;;;3.97;;
20478;SDS011;10398;52.490;13.434;2024-02-15T03:32:31;11.13;;;3.53;;
20478;SDS011;10398;52.490;13.434;2024-02-15T03:34:57;7.53;;;3.80;;
20478;SDS011;10398;52.490;13.434;2024-02-15T03:37:24;8.53;;;3.80;;
20478;SDS011;10398;52.490;13.434;2024-02-15T03:39:50;7.87;;;4.13;;
20478;SDS011;10398;52.490;13.434;2024-02-15T03:42:16;9.43;;;3.97;;
20478;SDS011;10398;52.490;13.434;2024-02-15T03:44:41;5.20;;;3.13;;
20478;SDS011;10398;52.490;13.434;2024-02-15T03:47:07;12.00;;;4.10;;
20478;SDS011;10398;52.490;13.434;2024-02-15T03:49:32;6.23;;;3.40;;
20478;SDS011;10398;52.490;13.434;2024-02-15T03:51:58;6.47;;;3.83;;
20478;SDS011;10398;52.490;13.434;2024-02-15T03:54:26;5.97;;;3.40;;
20478;SDS011;10398;52.490;13.434;2024-02-15T03:56:54;10.30;;;4.23;;
20478;SDS011;10398;52.490;13.434;2024-02-15T03:59:22;7.40;;;3.83;;
20478;SDS011;10398;52.490;13.434;2024-02-15T04:01:55;7.13;;;3.73;;
20478;SDS011;10398;52.490;13.434;2024-02-15T04:04:22;8.37;;;4.30;;
20478;SDS011;10398;52.490;13.434;2024-02-15T04:06:51;6.40;;;3.60;;
20478;SDS011;10398;52.490;13.434;2024-02-15T04:09:17;8.80;;;3.93;;
20478;SDS011;10398;52.490;13.434;2024-02-15T04:11:44;7.47;;;4.10;;
20478;SDS011;10398;52.490;13.434;2024-02-15T04:14:12;6.40;;;3.77;;
20478;SDS011;10398;52.490;13.434;2024-02-15T04:16:37;10.63;;;4.27;;
20478;SDS011;10398;52.490;13.434;2024-02-15T04:19:03;15.83;;;5.53;;
20478;SDS011;10398;52.490;13.434;2024-02-15T04:21:29;13.47;;;4.57;;
20478;SDS011;10398;52.490;13.434;2024-02-15T04:23:55;9.93;;;4.20;;
20478;SDS011;10398;52.490;13.434;2024-02-15T04:26:21;9.70;;;4.80;;
20478;SDS011;10398;52.490;13.434;2024-02-15T04:28:51;12.27;;;6.57;;
20478;SDS011;10398;52.490;13.434;2024-02-15T04:31:18;14.20;;;6.33;;
20478;SDS011;10398;52.490;13.434;2024-02-15T04:33:44;15.90;;;7.83;;
20478;SDS011;10398;52.490;13.434;2024-02-15T04:36:09;13.93;;;7.00;;
20478;SDS011;10398;52.490;13.434;2024-02-15T04:38:38;17.03;;;7.23;;
20478;SDS011;10398;52.490;13.434;2024-02-15T04:41:04;12.07;;;5.93;;
20478;SDS011;10398;52.490;13.434;2024-02-15T04:43:33;29.00;;;11.83;;
20478;SDS011;10398;52.490;13.434;2024-02-15T04:46:00;25.70;;;10.47;;
20478;SDS011;10398;52.490;13.434;2024-02-15T04:48:27;26.80;;;11.13;;
20478;SDS011;10398;52.490;13.434;2024-02-15T04:50:54;16.10;;;7.07;;
20478;SDS011;10398;52.490;13.434;2024-02-15T04:53:24;15.33;;;6.43;;
20478;SDS011;10398;52.490;13.434;2024-02-15T04:55:50;13.53;;;5.97;;
20478;SDS011;10398;52.490;13.434;2024-02-15T04:58:15;10.53;;;5.10;;
20478;SDS011;10398;52.490;13.434;2024-02-15T05:00:41;11.20;;;5.17;;
20478;SDS011;10398;52.490;13.434;2024-02-15T05:03:07;16.77;;;6.77;;
20478;SDS011;10398;52.490;13.434;2024-02-15T05:05:33;13.07;;;5.83;;
20478;SDS011;10398;52.490;13.434;2024-02-15T05:07:58;11.97;;;5.23;;
20478;SDS011;10398;52.490;13.434;2024-02-15T05:10:26;8.13;;;4.33;;
20478;SDS011;10398;52.490;13.434;2024-02-15T05:12:52;11.53;;;4.80;;
20478;SDS011;10398;52.490;13.434;2024-02-15T05:15:18;8.77;;;4.13;;
20478;SDS011;10398;52.490;13.434;2024-02-15T05:17:48;7.87;;;4.30;;
20478;SDS011;10398;52.490;13.434;2024-02-15T05:20:13;7.67;;;4.33;;
20478;SDS011;10398;52.490;13.434;2024-02-15T05:22:40;9.13;;;4.60;;
20478;SDS011;10398;52.490;13.434;2024-02-15T05:25:10;10.27;;;4.13;;
20478;SDS011;10398;52.490;13.434;2024-02-15T05:27:37;8.43;;;3.57;;
20478;SDS011;10398;52.490;13.434;2024-02-15T05:30:03;8.07;;;3.57;;
20478;SDS011;10398;52.490;13.434;2024-02-15T05:32:35;8.03;;;3.93;;
20478;SDS011;10398;52.490;13.434;2024-02-15T05:35:06;8.10;;;4.40;;
20478;SDS011;10398;52.490;13.434;2024-02-15T05:37:33;6.53;;;3.77;;
20478;SDS011;10398;52.490;13.434;2024-02-15T05:39:59;6.23;;;3.30;;
20478;SDS011;10398;52.490;13.434;2024-02-15T05:42:25;8.33;;;3.57;;
20478;SDS011;10398;52.490;13.434;2024-02-15T05:44:52;6.60;;;3.30;;
20478;SDS011;10398;52.490;13.434;2024-02-15T05:47:17;9.70;;;3.80;;
20478;SDS011;10398;52.490;13.434;2024-02-15T05:49:43;6.70;;;3.60;;
20478;SDS011;10398;52.490;13.434;2024-02-15T05:52:10;6.60;;;3.93;;
20478;SDS011;10398;52.490;13.434;2024-02-15T05:54:36;8.77;;;3.80;;
20478;SDS011;10398;52.490;13.434;2024-02-15T05:57:01;8.60;;;4.00;;
20478;SDS011;10398;52.490;13.434;2024-02-15T05:59:27;9.57;;;4.83;;
20478;SDS011;10398;52.490;13.434;2024-02-15T06:01:53;14.07;;;4.83;;
20478;SDS011;10398;52.490;13.434;2024-02-15T06:04:19;10.73;;;4.27;;
20478;SDS011;10398;52.490;13.434;2024-02-15T06:06:45;6.33;;;3.53;;
20478;SDS011;10398;52.490;13.434;2024-02-15T06:09:13;7.60;;;3.50;;
20478;SDS011;10398;52.490;13.434;2024-02-15T06:11:39;8.97;;;4.13;;
20478;SDS011;10398;52.490;13.434;2024-02-15T06:14:05;7.80;;;3.50;;
20478;SDS011;10398;52.490;13.434;2024-02-15T06:16:31;6.70;;;3.17;;
20478;SDS011;10398;52.490;13.434;2024-02-15T06:18:57;9.10;;;4.07;;
20478;SDS011;10398;52.490;13.434;2024-02-15T06:21:22;7.33;;;3.33;;
20478;SDS011;10398;52.490;13.434;2024-02-15T06:23:49;8.07;;;3.77;;
20478;SDS011;10398;52.490;13.434;2024-02-15T06:26:16;8.50;;;3.47;;
20478;SDS011;10398;52.490;13.434;2024-02-15T06:28:42;7.67;;;3.40;;
20478;SDS011;10398;52.490;13.434;2024-02-15T06:31:26;7.13;;;3.50;;
20478;SDS011;10398;52.490;13.434;2024-02-15T06:34:10;7.10;;;3.60;;
20478;SDS011;10398;52.490;13.434;2024-02-15T06:36:54;6.13;;;3.40;;
20478;SDS011;10398;52.490;13.434;2024-02-15T06:39:40;6.27;;;3.30;;
20478;SDS011;10398;52.490;13.434;2024-02-15T06:42:11;7.90;;;3.60;;
20478;SDS011;10398;52.490;13.434;2024-02-15T06:44:41;8.83;;;3.50;;
20478;SDS011;10398;52.490;13.434;2024-02-15T06:47:07;6.43;;;3.67;;
20478;SDS011;10398;52.490;13.434;2024-02-15T06:49:39;6.83;;;2.87;;
20478;SDS011;10398;52.490;13.434;2024-02-15T06:52:07;7.70;;;3.53;;
20478;SDS011;10398;52.490;13.434;2024-02-15T06:54:43;10.03;;;4.00;;
20478;SDS011;10398;52.490;13.434;2024-02-15T06:57:10;8.67;;;3.23;;
20478;SDS011;10398;52.490;13.434;2024-02-15T06:59:36;6.63;;;3.73;;
20478;SDS011;10398;52.490;13.434;2024-02-15T07:02:04;9.23;;;4.43;;
20478;SDS011;10398;52.490;13.434;2024-02-15T07:04:30;11.03;;;4.40;;
20478;SDS011;10398;52.490;13.434;2024-02-15T07:06:57;20.27;;;8.53;;
20478;SDS011;10398;52.490;13.434;2024-02-15T07:09:27;18.13;;;6.70;;
20478;SDS011;10398;52.490;13.434;2024-02-15T07:11:52;21.63;;;9.20;;
20478;SDS011;10398;52.490;13.434;2024-02-15T07:14:18;19.10;;;7.63;;
20478;SDS011;10398;52.490;13.434;2024-02-15T07:16:47;29.00;;;11.00;;
20478;SDS011;10398;52.490;13.434;2024-02-15T07:19:14;14.83;;;7.37;;
20478;SDS011;10398;52.490;13.434;2024-02-15T07:21:40;12.97;;;5.93;;
20478;SDS011;10398;52.490;13.434;2024-02-15T07:24:06;10.77;;;5.13;;
20478;SDS011;10398;52.490;13.434;2024-02-15T07:26:32;13.50;;;5.90;;
20478;SDS011;10398;52.490;13.434;2024-02-15T07:29:00;16.30;;;6.87;;
20478;SDS011;10398;52.490;13.434;2024-02-15T07:31:29;12.93;;;5.83;;
20478;SDS011;10398;52.490;13.434;2024-02-15T07:33:54;10.13;;;5.17;;
20478;SDS011;10398;52.490;13.434;2024-02-15T07:36:20;14.63;;;6.17;;
20478;SDS011;10398;52.490;13.434;2024-02-15T07:38:46;12.43;;;5.53;;
20478;SDS011;10398;52.490;13.434;2024-02-15T07:41:13;9.67;;;4.77;;
20478;SDS011;10398;52.490;13.434;2024-02-15T07:43:44;10.83;;;4.87;;
20478;SDS011;10398;52.490;13.434;2024-02-15T07:46:12;11.90;;;6.27;;
20478;SDS011;10398;52.490;13.434;2024-02-15T07:48:39;13.37;;;5.50;;
20478;SDS011;10398;52.490;13.434;2024-02-15T07:51:09;11.43;;;5.47;;
20478;SDS011;10398;52.490;13.434;2024-02-15T07:53:36;10.80;;;5.53;;
20478;SDS011;10398;52.490;13.434;2024-02-15T07:56:02;9.47;;;4.63;;
20478;SDS011;10398;52.490;13.434;2024-02-15T07:58:27;12.33;;;5.00;;
20478;SDS011;10398;52.490;13.434;2024-02-15T08:00:53;8.37;;;4.87;;
20478;SDS011;10398;52.490;13.434;2024-02-15T08:03:18;10.50;;;4.90;;
20478;SDS011;10398;52.490;13.434;2024-02-15T08:05:44;9.80;;;5.13;;
20478;SDS011;10398;52.490;13.434;2024-02-15T08:08:10;6.73;;;3.30;;
20478;SDS011;10398;52.490;13.434;2024-02-15T08:10:36;8.17;;;3.97;;
20478;SDS011;10398;52.490;13.434;2024-02-15T08:13:02;12.00;;;5.50;;
20478;SDS011;10398;52.490;13.434;2024-02-15T08:15:28;8.50;;;5.23;;
20478;SDS011;10398;52.490;13.434;2024-02-15T08:17:54;12.07;;;6.90;;
20478;SDS011;10398;52.490;13.434;2024-02-15T08:20:20;13.57;;;8.23;;
20478;SDS011;10398;52.490;13.434;2024-02-15T08:22:48;12.70;;;7.83;;
20478;SDS011;10398;52.490;13.434;2024-02-15T08:25:14;18.33;;;9.03;;
20478;SDS011;10398;52.490;13.434;2024-02-15T08:27:41;13.13;;;8.57;;
20478;SDS011;10398;52.490;13.434;2024-02-15T08:30:12;15.67;;;9.53;;
20478;SDS011;10398;52.490;13.434;2024-02-15T08:32:39;21.30;;;9.70;;
20478;SDS011;10398;52.490;13.434;2024-02-15T08:35:06;18.60;;;10.50;;
20478;SDS011;10398;52.490;13.434;2024-02-15T08:37:33;17.90;;;9.03;;
20478;SDS011;10398;52.490;13.434;2024-02-15T08:40:03;12.43;;;6.90;;
20478;SDS011;10398;52.490;13.434;2024-02-15T08:42:36;11.43;;;5.47;;
20478;SDS011;10398;52.490;13.434;2024-02-15T08:45:03;11.43;;;5.80;;
20478;SDS011;10398;52.490;13.434;2024-02-15T08:47:30;12.20;;;5.67;;
20478;SDS011;10398;52.490;13.434;2024-02-15T08:49:55;16.77;;;6.73;;
20478;SDS011;10398;52.490;13.434;2024-02-15T08:52:23;17.77;;;6.87;;
20478;SDS011;10398;52.490;13.434;2024-02-15T08:54:51;14.13;;;6.43;;
20478;SDS011;10398;52.490;13.434;2024-02-15T08:57:17;13.50;;;6.50;;
20478;SDS011;10398;52.490;13.434;2024-02-15T08:59:44;12.23;;;5.87;;
20478;SDS011;10398;52.490;13.434;2024-02-15T09:02:09;13.07;;;6.40;;
20478;SDS011;10398;52.490;13.434;2024-02-15T09:04:35;15.17;;;7.03;;
20478;SDS011;10398;52.490;13.434;2024-02-15T09:07:00;13.30;;;6.57;;
20478;SDS011;10398;52.490;13.434;2024-02-15T09:09:29;16.67;;;8.20;;
20478;SDS011;10398;52.490;13.434;2024-02-15T09:11:56;13.00;;;7.00;;
20478;SDS011;10398;52.490;13.434;2024-02-15T09:14:22;13.87;;;7.13;;
20478;SDS011;10398;52.490;13.434;2024-02-15T09:16:47;12.87;;;6.57;;
20478;SDS011;10398;52.490;13.434;2024-02-15T09:19:13;14.17;;;6.57;;
20478;SDS011;10398;52.490;13.434;2024-02-15T09:21:39;10.47;;;5.17;;
20478;SDS011;10398;52.490;13.434;2024-02-15T09:24:05;10.77;;;5.37;;
20478;SDS011;10398;52.490;13.434;2024-02-15T09:26:31;10.87;;;5.27;;
20478;SDS011;10398;52.490;13.434;2024-02-15T09:28:56;12.03;;;5.00;;
20478;SDS011;10398;52.490;13.434;2024-02-15T09:31:22;14.30;;;6.47;;
20478;SDS011;10398;52.490;13.434;2024-02-15T09:33:49;15.23;;;6.80;;
20478;SDS011;10398;52.490;13.434;2024-02-15T09:36:15;22.27;;;6.90;;
20478;SDS011;10398;52.490;13.434;2024-02-15T09:38:41;13.83;;;7.03;;
20478;SDS011;10398;52.490;13.434;2024-02-15T09:41:07;11.20;;;5.53;;
20478;SDS011;10398;52.490;13.434;2024-02-15T09:43:34;13.10;;;6.23;;
20478;SDS011;10398;52.490;13.434;2024-02-15T09:46:00;9.47;;;5.30;;
20478;SDS011;10398;52.490;13.434;2024-02-15T09:48:29;10.27;;;5.00;;
20478;SDS011;10398;52.490;13.434;2024-02-15T09:50:57;12.23;;;4.97;;
20478;SDS011;10398;52.490;13.434;2024-02-15T09:53:23;11.23;;;5.33;;
20478;SDS011;10398;52.490;13.434;2024-02-15T09:55:53;9.90;;;4.77;;
20478;SDS011;10398;52.490;13.434;2024-02-15T09:58:20;10.00;;;4.47;;
20478;SDS011;10398;52.490;13.434;2024-02-15T10:00:48;12.57;;;4.83;;
20478;SDS011;10398;52.490;13.434;2024-02-15T10:03:16;13.57;;;4.60;;
20478;SDS011;10398;52.490;13.434;2024-02-15T10:05:49;14.47;;;5.77;;
20478;SDS011;10398;52.490;13.434;2024-02-15T10:08:16;11.40;;;5.33;;
20478;SDS011;10398;52.490;13.434;2024-02-15T10:10:42;14.00;;;5.90;;
20478;SDS011;10398;52.490;13.434;2024-02-15T10:13:12;13.47;;;5.63;;
20478;SDS011;10398;52.490;13.434;2024-02-15T10:15:38;13.00;;;5.67;;
20478;SDS011;10398;52.490;13.434;2024-02-15T10:18:10;13.23;;;5.67;;
20478;SDS011;10398;52.490;13.434;2024-02-15T10:20:37;21.93;;;10.77;;
20478;SDS011;10398;52.490;13.434;2024-02-15T10:25:33;25.20;;;12.20;;
20478;SDS011;10398;52.490;13.434;2024-02-15T10:28:06;20.20;;;9.57;;
20478;SDS011;10398;52.490;13.434;2024-02-15T10:30:34;18.53;;;9.17;;
20478;SDS011;10398;52.490;13.434;2024-02-15T10:33:01;16.00;;;7.97;;
20478;SDS011;10398;52.490;13.434;2024-02-15T10:35:27;14.53;;;7.53;;
20478;SDS011;10398;52.490;13.434;2024-02-15T10:38:04;14.33;;;6.27;;
20478;SDS011;10398;52.490;13.434;2024-02-15T10:40:34;11.43;;;5.53;;
20478;SDS011;10398;52.490;13.434;2024-02-15T10:43:02;13.73;;;5.63;;
20478;SDS011;10398;52.490;13.434;2024-02-15T10:45:32;7.30;;;4.13;;
20478;SDS011;10398;52.490;13.434;2024-02-15T10:48:01;7.83;;;3.70;;
20478;SDS011;10398;52.490;13.434;2024-02-15T10:50:29;6.87;;;3.47;;
20478;SDS011;10398;52.490;13.434;2024-02-15T10:52:58;7.90;;;3.33;;
20478;SDS011;10398;52.490;13.434;2024-02-15T10:58:40;8.63;;;3.07;;
20478;SDS011;10398;52.490;13.434;2024-02-15T11:01:15;5.80;;;3.43;;
20478;SDS011;10398;52.490;13.434;2024-02-15T11:03:57;7.97;;;3.37;;
20478;SDS011;10398;52.490;13.434;2024-02-15T11:06:28;5.37;;;2.70;;
20478;SDS011;10398;52.490;13.434;2024-02-15T11:08:55;9.27;;;3.43;;
20478;SDS011;10398;52.490;13.434;2024-02-15T11:11:21;7.60;;;3.53;;
20478;SDS011;10398;52.490;13.434;2024-02-15T11:13:48;9.10;;;3.80;;
20478;SDS011;10398;52.490;13.434;2024-02-15T11:21:59;5.97;;;2.93;;
20478;SDS011;10398;52.490;13.434;2024-02-15T11:24:29;5.33;;;2.20;;
20478;SDS011;10398;52.490;13.434;2024-02-15T11:27:04;5.17;;;2.70;;
20478;SDS011;10398;52.490;13.434;2024-02-15T11:35:14;4.63;;;2.30;;
20478;SDS011;10398;52.490;13.434;2024-02-15T11:40:27;6.00;;;2.30;;
20478;SDS011;10398;52.490;13.434;2024-02-15T11:42:57;4.53;;;2.27;;
20478;SDS011;10398;52.490;13.434;2024-02-15T11:45:24;6.83;;;2.63;;
20478;SDS011;10398;52.490;13.434;2024-02-15T11:47:51;6.53;;;2.90;;
20478;SDS011;10398;52.490;13.434;2024-02-15T11:50:19;5.47;;;2.37;;
20478;SDS011;10398;52.490;13.434;2024-02-15T11:52:46;4.33;;;2.40;;
20478;SDS011;10398;52.490;13.434;2024-02-15T11:55:14;4.87;;;2.53;;
20478;SDS011;10398;52.490;13.434;2024-02-15T11:57:44;6.90;;;2.30;;
20478;SDS011;10398;52.490;13.434;2024-02-15T12:00:34;6.67;;;2.77;;
20478;SDS011;10398;52.490;13.434;2024-02-15T12:03:19;5.83;;;2.30;;
20478;SDS011;10398;52.490;13.434;2024-02-15T12:06:04;8.07;;;3.87;;
20478;SDS011;10398;52.490;13.434;2024-02-15T12:08:49;9.37;;;3.00;;
20478;SDS011;10398;52.490;13.434;2024-02-15T12:11:34;6.23;;;2.47;;
20478;SDS011;10398;52.490;13.434;2024-02-15T12:14:19;7.77;;;3.57;;
20478;SDS011;10398;52.490;13.434;2024-02-15T12:17:04;9.33;;;4.30;;
20478;SDS011;10398;52.490;13.434;2024-02-15T12:19:50;6.97;;;3.20;;
20478;SDS011;10398;52.490;13.434;2024-02-15T12:22:19;5.87;;;2.90;;
20478;SDS011;10398;52.490;13.434;2024-02-15T12:24:56;4.37;;;2.70;;
20478;SDS011;10398;52.490;13.434;2024-02-15T12:27:23;7.53;;;3.17;;
20478;SDS011;10398;52.490;13.434;2024-02-15T12:29:53;6.20;;;2.97;;
20478;SDS011;10398;52.490;13.434;2024-02-15T12:32:23;11.50;;;4.37;;
20478;SDS011;10398;52.490;13.434;2024-02-15T12:34:49;8.47;;;3.17;;
20478;SDS011;10398;52.490;13.434;2024-02-15T12:37:19;9.23;;;3.37;;
20478;SDS011;10398;52.490;13.434;2024-02-15T12:39:46;13.37;;;4.47;;
20478;SDS011;10398;52.490;13.434;2024-02-15T12:42:13;9.57;;;3.30;;
20478;SDS011;10398;52.490;13.434;2024-02-15T12:44:44;10.10;;;4.20;;
20478;SDS011;10398;52.490;13.434;2024-02-15T12:47:20;6.20;;;3.47;;
20478;SDS011;10398;52.490;13.434;2024-02-15T12:49:47;8.33;;;3.60;;
20478;SDS011;10398;52.490;13.434;2024-02-15T12:58:00;7.17;;;3.07;;
20478;SDS011;10398;52.490;13.434;2024-02-15T13:00:33;8.20;;;3.30;;
20478;SDS011;10398;52.490;13.434;2024-02-15T13:03:02;5.20;;;2.93;;
20478;SDS011;10398;52.490;13.434;2024-02-15T13:05:29;6.53;;;2.93;;
20478;SDS011;10398;52.490;13.434;2024-02-15T13:07:56;11.77;;;3.40;;
20478;SDS011;10398;52.490;13.434;2024-02-15T13:10:30;8.90;;;3.50;;
20478;SDS011;10398;52.490;13.434;2024-02-15T13:12:56;5.33;;;3.30;;
20478;SDS011;10398;52.490;13.434;2024-02-15T13:15:22;5.13;;;2.67;;
20478;SDS011;10398;52.490;13.434;2024-02-15T13:17:58;5.33;;;2.67;;
20478;SDS011;10398;52.490;13.434;2024-02-15T13:20:24;10.23;;;3.90;;
20478;SDS011;10398;52.490;13.434;2024-02-15T13:23:03;9.60;;;3.97;;
20478;SDS011;10398;52.490;13.434;2024-02-15T13:25:36;13.03;;;4.87;;
20478;SDS011;10398;52.490;13.434;2024-02-15T13:28:04;9.60;;;3.97;;
20478;SDS011;10398;52.490;13.434;2024-02-15T13:30:33;9.63;;;3.77;;
20478;SDS011;10398;52.490;13.434;2024-02-15T13:32:59;7.07;;;3.27;;
20478;SDS011;10398;52.490;13.434;2024-02-15T13:35:26;7.60;;;3.13;;
20478;SDS011;10398;52.490;13.434;2024-02-15T13:37:55;6.83;;;3.10;;
20478;SDS011;10398;52.490;13.434;2024-02-15T13:40:23;8.43;;;4.37;;
20478;SDS011;10398;52.490;13.434;2024-02-15T13:42:53;4.57;;;2.60;;
20478;SDS011;10398;52.490;13.434;2024-02-15T13:45:42;4.53;;;1.93;;
20478;SDS011;10398;52.490;13.434;2024-02-15T13:48:09;7.87;;;2.60;;
20478;SDS011;10398;52.490;13.434;2024-02-15T13:50:38;5.97;;;2.67;;
20478;SDS011;10398;52.490;13.434;2024-02-15T13:53:04;7.97;;;3.07;;
20478;SDS011;10398;52.490;13.434;2024-02-15T13:55:30;7.07;;;2.80;;
20478;SDS011;10398;52.490;13.434;2024-02-15T13:57:56;6.50;;;3.20;;
20478;SDS011;10398;52.490;13.434;2024-02-15T14:00:23;6.47;;;3.00;;
20478;SDS011;10398;52.490;13.434;2024-02-15T14:02:55;5.63;;;3.13;;
20478;SDS011;10398;52.490;13.434;2024-02-15T14:05:23;4.97;;;2.47;;
20478;SDS011;10398;52.490;13.434;2024-02-15T14:07:54;4.50;;;2.20;;
20478;SDS011;10398;52.490;13.434;2024-02-15T14:10:25;4.67;;;1.90;;
20478;SDS011;10398;52.490;13.434;2024-02-15T14:12:54;4.27;;;2.10;;
20478;SDS011;10398;52.490;13.434;2024-02-15T14:15:20;4.83;;;2.00;;
20478;SDS011;10398;52.490;13.434;2024-02-15T14:17:46;4.93;;;2.40;;
20478;SDS011;10398;52.490;13.434;2024-02-15T14:20:12;3.37;;;1.67;;
20478;SDS011;10398;52.490;13.434;2024-02-15T14:22:43;3.90;;;1.83;;
20478;SDS011;10398;52.490;13.434;2024-02-15T14:25:11;7.17;;;2.53;;
20478;SDS011;10398;52.490;13.434;2024-02-15T14:27:39;3.33;;;1.60;;
20478;SDS011;10398;52.490;13.434;2024-02-15T14:30:05;3.37;;;1.47;;
20478;SDS011;10398;52.490;13.434;2024-02-15T14:32:50;3.90;;;1.70;;
20478;SDS011;10398;52.490;13.434;2024-02-15T14:35:34;2.33;;;1.50;;
20478;SDS011;10398;52.490;13.434;2024-02-15T14:38:04;4.83;;;1.63;;
20478;SDS011;10398;52.490;13.434;2024-02-15T14:40:36;4.30;;;1.57;;
20478;SDS011;10398;52.490;13.434;2024-02-15T14:43:02;3.70;;;1.90;;
20478;SDS011;10398;52.490;13.434;2024-02-15T14:45:29;4.83;;;1.77;;
20478;SDS011;10398;52.490;13.434;2024-02-15T14:47:57;2.53;;;1.60;;
20478;SDS011;10398;52.490;13.434;2024-02-15T14:50:23;4.03;;;1.70;;
20478;SDS011;10398;52.490;13.434;2024-02-15T14:52:49;3.77;;;2.20;;
20478;SDS011;10398;52.490;13.434;2024-02-15T14:55:15;3.80;;;1.70;;
20478;SDS011;10398;52.490;13.434;2024-02-15T14:57:42;5.83;;;1.67;;
20478;SDS011;10398;52.490;13.434;2024-02-15T15:00:08;2.23;;;1.60;;
20478;SDS011;10398;52.490;13.434;2024-02-15T15:02:45;4.17;;;2.10;;
20478;SDS011;10398;52.490;13.434;2024-02-15T15:05:14;3.43;;;1.93;;